Fram — LADA7 — position and weather

sailwx.info

Track history (hours):
 
Tides and Currents Weather Stations Pressure Air Temp Water Temp Dewpoint Dewpoint Depression Visibility Wind Speed Wind Dir Waves Ship Positions

Fram

Last reported at 2019-Jul-20 13:00 UTC. Time now 2019-Jul-20 13:30 UTC.
Position N 64°10' W 051°43'.

Length 114 m; draft 5.1 m.

Type: Passenger vessel. MMSI: 258932000.

Date/timePositionNaut miles runAvg speedWind from/ knotsBaromVisibWave heightAir tempDewpointWater temp
2019-Jul-20 13:00N 64°10' W 051°43'0 0.0
2019-Jul-20 12:30N 64°10' W 051°43'0 0.0
2019-Jul-20 12:00N 64°10' W 051°43'0 0.0
2019-Jul-20 11:30N 64°10' W 051°43'0 0.0
2019-Jul-20 11:00N 64°10' W 051°43'1 2.0
2019-Jul-20 10:30N 64°09' W 051°45'5 9.3
2019-Jul-20 10:01N 64°07' W 051°54'5 9.8
2019-Jul-20 09:30N 64°05' W 052°04'510.6
2019-Jul-20 09:00N 64°02' W 052°15'510.0
2019-Jul-20 08:30N 63°57' W 052°16'510.8
2019-Jul-20 08:00N 63°53' W 052°11'510.5
2019-Jul-20 07:30N 63°48' W 052°05'510.3
2019-Jul-20 07:00N 63°43' W 052°00'510.4
2019-Jul-20 06:30N 63°39' W 051°55'610.5
2019-Jul-20 05:59N 63°34' W 051°49'  
Track history (hours):
 
Tides and Currents Weather Stations Pressure Air Temp Water Temp Dewpoint Dewpoint Depression Visibility Wind Speed Wind Dir Waves Ship Positions

Fram

Last reported at 2019-Jul-20 13:00 UTC. Time now 2019-Jul-20 13:30 UTC.
Position N 64°10' W 051°43'.

Length 114 m; draft 5.1 m.

Type: Passenger vessel. MMSI: 258932000.

Date/timePositionNaut miles runAvg speedWind from/ knotsBaromVisibWave heightAir tempDewpointWater temp
2019-Jul-20 13:00N 64°10' W 051°43'0 0.0
2019-Jul-20 12:30N 64°10' W 051°43'0 0.0
2019-Jul-20 12:00N 64°10' W 051°43'0 0.0
2019-Jul-20 11:30N 64°10' W 051°43'0 0.0
2019-Jul-20 11:00N 64°10' W 051°43'1 2.0
2019-Jul-20 10:30N 64°09' W 051°45'5 9.3
2019-Jul-20 10:01N 64°07' W 051°54'5 9.8
2019-Jul-20 09:30N 64°05' W 052°04'510.6
2019-Jul-20 09:00N 64°02' W 052°15'510.0
2019-Jul-20 08:30N 63°57' W 052°16'510.8
2019-Jul-20 08:00N 63°53' W 052°11'510.5
2019-Jul-20 07:30N 63°48' W 052°05'510.3
2019-Jul-20 07:00N 63°43' W 052°00'510.4
2019-Jul-20 06:30N 63°39' W 051°55'610.5
2019-Jul-20 05:59N 63°34' W 051°49'  

Dump ship's entire track history